Station: New May Downs  

  Atmospheric Gas Attenuation - ITU Rec 676-11   ----------------- dB/100km -----------------
Date Time Temp RH % AH g/m3 Dew Point Wind Direction Speed kph Gust kph Barometer mB Rainfall Since 9am 24GHz 47GHz 76GHz 122GHz 134GHz 241GHz
08/05 12:40 24 36 7.83 8 17 24 1013.1 0 17.5 22.1 32.4 84.9 77.7 267.3
08/05 12:30 23.7 36 7.7 7.8 20 32 1013.1 0 17.2 21.9 32.1 84.0 76.6 263.2
08/05 12:20 23.6 35 7.44 7.6 24 30 1013.1 0 16.7 21.6 31.3 81.8 73.8 253.3
08/05 12:10 23.7 36 7.7 7.7 20 28 1013.1 0 17.2 21.9 32.1 84.0 76.6 263.2
08/05 12:00 23.6 36 7.66 7.7 20 32 1013.1 0 17.2 21.9 32.0 83.7 76.2 261.9
08/05 11:50 23.4 34 7.15 7 17 22 1013.1 0 16.1 21.3 30.4 79.4 70.7 242.7
08/05 11:40 23.2 36 7.48 7.3 17 24 1013.1 0 16.8 21.8 31.5 82.5 74.6 256.1
08/05 11:30 22 38 7.37 7 17 33 1013.1 0 16.6 21.9 31.6 82.7 74.4 255.5
08/05 11:20 21.9 36 6.95 6.1 22 26 1013.1 0 15.8 21.3 30.2 79.0 69.8 239.3
08/05 11:10 21.8 36 6.91 6.4 22 30 1013.1 0 15.7 21.3 30.1 78.7 69.5 238.0
08/05 11:00 20.3 39 6.86 5.9 20 32 1013.1 0 15.6 21.6 30.5 79.7 70.2 240.4
08/05 10:50 20.3 39 6.86 5.9 19 28 1013.1 0 15.6 21.6 30.5 79.7 70.2 240.4
08/05 10:40 20.1 38 6.61 5.3 20 30 1013.1 0 15.1 21.3 29.7 77.6 67.5 231.1
08/05 10:30 20.7 37 6.66 5.5 20 35 1013.1 0 15.2 21.2 29.7 77.5 67.6 231.3
08/05 10:20 19.4 40 6.67 5.4 22 26 1013.1 0 15.3 21.5 30.2 78.8 68.8 235.4
08/05 10:10 18.9 40 6.48 5 26 32 1013.1 0 14.9 21.4 29.7 77.6 67.1 229.3
08/05 10:00 18.7 40 6.4 4.8 20 32 1013.1 0 14.7 21.3 29.5 77.0 66.3 226.6
08/05 09:50 18.5 41 6.49 5 17 20 1013.1 0 14.9 21.5 29.9 78.0 67.5 230.8
08/05 09:40 18.6 40 6.37 4.7 30 37 1013.1 0 14.7 21.3 29.4 76.8 66.1 225.7
08/05 09:30 17.9 42 6.41 4.8 24 39 1013.1 0 14.8 21.5 29.8 77.9 67.1 229.3
08/05 09:20 17.8 40 6.07 4.3 28 39 1013.1 0 14.1 21.1 28.7 74.8 63.3 215.9
08/05 09:10 17.7 41 6.19 4.3 28 33 1013.1 0 14.3 21.2 29.1 76.0 64.7 220.9
08/05 09:00 17.9 41 6.26 4.5 19 32 1013.1 0 14.5 21.3 29.3 76.5 65.4 223.2
08/05 08:50 17.5 42 6.26 4.4 19 26 1013.1 0 14.5 21.4 29.5 76.9 65.7 224.3
08/05 08:40 17.9 42 6.41 4.8 19 26 1013.1 0 14.8 21.5 29.8 77.9 67.1 229.3
08/05 08:30 16.9 43 6.18 4.3 24 39 1013.1 0 14.3 21.4 29.4 76.7 65.3 222.7
08/05 08:20 17.3 41 6.04 4.2 24 30 1013.1 0 14.0 21.1 28.8 75.0 63.3 216.0
08/05 08:10 17.7 41 6.19 4.3 20 26 1013.1 0 14.3 21.2 29.1 76.0 64.7 220.9
08/05 08:00 17.4 42 6.22 4.4 19 32 1013.1 0 14.4 21.4 29.4 76.6 65.3 223.0
08/05 07:50 16.9 43 6.18 4.2 17 22 1013.1 0 14.3 21.4 29.4 76.7 65.3 222.7
08/05 07:40 16.6 42 5.93 3.9 20 28 1013.1 0 13.8 21.1 28.6 74.6 62.6 213.4
08/05 07:30 16.5 43 6.04 3.9 19 28 1013.1 0 14.0 21.3 29.0 75.7 64.0 218.1
08/05 07:20 16.4 43 6 3.8 20 24 1013.1 0 14.0 21.3 28.9 75.5 63.6 216.8
08/05 07:10 16.5 42 5.9 3.5 17 22 1013.1 0 13.7 21.1 28.6 74.4 62.4 212.5
08/05 07:00 16.7 41 5.83 3.4 15 26 1013.1 0 13.6 21.0 28.2 73.6 61.4 209.1
08/05 06:50 16.8 40 5.72 3.4 17 28 1013.1 0 13.4 20.8 27.8 72.5 60.1 204.5
08/05 06:40 16.7 41 5.83 3.4 15 19 1013.1 0 13.6 21.0 28.2 73.6 61.4 209.1
08/05 06:30 16.7 41 5.83 3.4 13 22 1013.1 0 13.6 21.0 28.2 73.6 61.4 209.1
08/05 06:20 16.8 40 5.72 3.1 13 20 1013.1 0 13.4 20.8 27.8 72.5 60.1 204.5
08/05 06:10 16.8 40 5.72 3.1 11 15 1013.1 0 13.4 20.8 27.8 72.5 60.1 204.5
08/05 06:00 16.7 40 5.68 3.1 15 24 1013.1 0 13.3 20.8 27.7 72.2 59.7 203.1
08/05 05:50 16.7 40 5.68 3 15 19 1013.1 0 13.3 20.8 27.7 72.2 59.7 203.1
08/05 05:40 16.7 40 5.68 3 15 19 1013.1 0 13.3 20.8 27.7 72.2 59.7 203.1
08/05 05:30 16.8 40 5.72 3.1 15 22 1013.1 0 13.4 20.8 27.8 72.5 60.1 204.5
08/05 05:20 16.9 40 5.75 3.2 17 20 1013.1 0 13.4 20.8 27.9 72.7 60.3 205.4
08/05 05:10 16.7 40 5.68 3 13 19 1013.1 0 13.3 20.8 27.7 72.2 59.7 203.1
08/05 05:00 16.8 40 5.72 3.1 13 20 1013.1 0 13.4 20.8 27.8 72.5 60.1 204.5
08/05 04:50 16.8 40 5.72 3.1 17 22 1013.1 0 13.4 20.8 27.8 72.5 60.1 204.5
08/05 04:40 17 39 5.64 2.9 15 20 1013.1 0 13.2 20.6 27.5 71.6 59.0 200.8
08/05 04:30 17.1 39 5.68 3.1 15 28 1013.1 0 13.3 20.7 27.6 71.9 59.4 202.1
08/05 04:20 17.1 40 5.82 3.4 15 19 1013.1 0 13.6 20.9 28.1 73.2 61.0 207.7
08/05 04:10 17.1 40 5.82 3.4 17 22 1013.1 0 13.6 20.9 28.1 73.2 61.0 207.7
08/05 04:00 17.3 40 5.89 3.6 15 24 1013.1 0 13.7 20.9 28.2 73.6 61.6 210.0
08/05 03:50 17.3 41 6.04 3.9 11 17 1013.1 0 14.0 21.1 28.8 75.0 63.3 216.0
08/05 03:40 17.3 41 6.04 3.9 11 15 1013.1 0 14.0 21.1 28.8 75.0 63.3 216.0
08/05 03:30 17.4 41 6.08 4 15 22 1013.1 0 14.1 21.2 28.9 75.3 63.7 217.3
08/05 03:20 17.3 41 6.04 4.2 17 22 1013.1 0 14.0 21.1 28.8 75.0 63.3 216.0
08/05 03:10 17.3 41 6.04 4.2 15 20 1013.1 0 14.0 21.1 28.8 75.0 63.3 216.0
08/05 03:00 17.3 42 6.19 4.3 15 24 1013.1 0 14.3 21.3 29.3 76.4 65.1 222.0
08/05 02:50 17.3 41 6.04 4.2 15 19 1013.1 0 14.0 21.1 28.8 75.0 63.3 216.0
08/05 02:40 17.4 42 6.22 4.3 17 20 1013.1 0 14.4 21.4 29.4 76.6 65.3 223.0
08/05 02:30 17.4 42 6.22 4.4 17 22 1013.1 0 14.4 21.4 29.4 76.6 65.3 223.0
08/05 02:20 17.6 41 6.15 4.2 22 26 1013.1 0 14.2 21.2 29.0 75.7 64.4 219.6
08/05 02:10 17.7 41 6.19 4.3 19 24 1013.1 0 14.3 21.2 29.1 76.0 64.7 220.9
08/05 02:00 17.9 41 6.26 4.5 19 28 1013.1 0 14.5 21.3 29.3 76.5 65.4 223.2
08/05 01:50 17.8 40 6.07 4.3 15 30 1013.1 0 14.1 21.1 28.7 74.8 63.3 215.9
08/05 01:40 18.1 40 6.18 4.3 13 17 1013.1 0 14.3 21.1 29.0 75.6 64.3 219.5
08/05 01:30 18.1 40 6.18 4.3 17 28 1013.1 0 14.3 21.1 29.0 75.6 64.3 219.5
08/05 01:20 18.4 39 6.13 4.2 20 26 1013.1 0 14.2 21.0 28.7 74.8 63.5 216.7
08/05 01:10 18.5 39 6.17 4.3 19 24 1013.1 0 14.2 21.0 28.8 75.1 63.9 218.0
08/05 01:00 18.6 39 6.21 4.4 17 28 1013.1 0 14.3 21.1 28.9 75.4 64.2 219.3
08/05 00:50 18.6 38 6.05 4.3 17 22 1013.1 0 14.0 20.8 28.3 73.9 62.4 213.0
08/05 00:40 18.8 38 6.12 4.2 15 24 1013.1 0 14.1 20.9 28.5 74.4 63.1 215.2
08/05 00:30 18.9 38 6.16 4.3 19 33 1013.1 0 14.2 20.9 28.6 74.6 63.4 216.5
08/05 00:20 19 38 6.19 4.3 15 19 1013.1 0 14.3 20.9 28.7 74.8 63.7 217.5
08/05 00:10 18.8 38 6.12 4.2 17 20 1013.1 0 14.1 20.9 28.5 74.4 63.1 215.2
08/05 00:00 19.1 37 6.06 4.1 17 33 1013.1 0 14.0 20.7 28.2 73.6 62.2 212.1
07/05 23:50 19.3 37 6.14 4.2 19 24 1013.1 0 14.2 20.8 28.4 74.1 62.9 214.7
07/05 23:40 19.3 37 6.14 4.2 17 19 1013.1 0 14.2 20.8 28.4 74.1 62.9 214.7
07/05 23:30 19.5 37 6.21 4.4 17 30 1013.1 0 14.3 20.9 28.6 74.6 63.5 216.9
07/05 23:20 19.6 37 6.25 4.5 19 26 1013.1 0 14.4 20.9 28.7 74.8 63.9 218.2
07/05 23:10 19.5 38 6.38 4.8 15 19 1013.1 0 14.6 21.1 29.2 76.1 65.4 223.6
07/05 23:00 19.8 38 6.49 5.1 15 26 1013.1 0 14.9 21.2 29.4 76.8 66.4 227.1
07/05 22:50 19.9 38 6.53 5.1 15 17 1013.1 0 14.9 21.2 29.5 77.1 66.8 228.5
07/05 22:40 20 39 6.74 5.6 17 26 1013.1 0 15.4 21.5 30.2 78.9 69.1 236.5
07/05 22:30 20.1 39 6.78 5.7 15 32 1013.1 0 15.5 21.5 30.3 79.2 69.5 237.8
07/05 22:20 20.2 39 6.82 6.1 17 28 1013.1 0 15.5 21.5 30.4 79.5 69.8 239.1
07/05 22:10 20.3 41 7.21 6.6 11 15 1013.1 0 16.4 22.1 31.7 83.0 74.2 254.4
07/05 22:00 20.2 42 7.34 6.9 15 22 1013.1 0 16.6 22.3 32.2 84.3 75.8 260.0
07/05 21:50 20.3 41 7.21 6.9 15 22 1013.1 0 16.4 22.1 31.7 83.0 74.2 254.4
07/05 21:40 20.4 41 7.25 7 15 19 1013.1 0 16.4 22.1 31.8 83.2 74.5 255.7
07/05 21:30 20.5 42 7.47 7.2 17 24 1013.1 0 16.9 22.4 32.6 85.2 77.0 264.3
07/05 21:20 20.5 42 7.47 7.1 15 22 1013.1 0 16.9 22.4 32.6 85.2 77.0 264.3
07/05 21:10 20.6 42 7.52 7.2 13 17 1013.1 0 17.0 22.4 32.7 85.6 77.5 266.0
07/05 21:00 20.7 42 7.56 7.3 13 20 1013.1 0 17.1 22.5 32.8 85.8 77.8 267.3
07/05 20:50 20.8 42 7.6 7.4 11 15 1013.1 0 17.2 22.5 32.9 86.1 78.2 268.6
07/05 20:40 21 42 7.69 7.6 17 22 1013.1 0 17.3 22.6 33.1 86.7 79.1 271.6
07/05 20:30 21 42 7.69 7.6 13 20 1013.1 0 17.3 22.6 33.1 86.7 79.1 271.6
07/05 20:20 21.1 42 7.74 7.7 13 15 1013.1 0 17.4 22.6 33.3 87.1 79.5 273.3
07/05 20:10 21.2 41 7.6 7.7 11 13 1013.1 0 17.1 22.4 32.7 85.7 77.8 267.3

Last Refresh: 08-May-2026 12:09:34

Bureau of Meteorology